| time (UTC) | temp F | wind direction | speed MPH | gust MPH | rain 1hr in | rain 24hr in | rain mn in | humidity % | barometer mb |
| 20260903013542 | 56 | 144 | 3.0 | 9.0 | 0.11 | 0.26 | 0.26 | 93 | 1007.3 |
| 20260903013049 | 56 | 162 | 3.0 | 14.0 | 0.11 | 0.26 | 0.26 | 93 | 1007.2 |
| 20260903012542 | 56 | 155 | 4.0 | 14.0 | 0.10 | 0.25 | 0.25 | 93 | 1007.4 |
| 20260903011546 | 56 | 168 | 3.0 | 13.0 | 0.09 | 0.24 | 0.24 | 93 | 1007.2 |
| 20260903011044 | 56 | 170 | 7.0 | 11.0 | 0.08 | 0.23 | 0.23 | 93 | 1007.1 |
| 20260903010546 | 56 | 188 | 7.0 | 14.0 | 0.07 | 0.22 | 0.22 | 92 | 1006.9 |
| 20260903010047 | 57 | 210 | 7.0 | 14.0 | 0.06 | 0.21 | 0.21 | 92 | 1007.0 |
| 20260903005543 | 57 | 240 | 5.0 | 11.0 | 0.04 | 0.19 | 0.19 | 92 | 1006.9 |
| 20260903005043 | 58 | 207 | 7.0 | 18.0 | 0.03 | 0.18 | 0.18 | 90 | 1006.9 |
| 20260903004543 | 59 | 222 | 9.0 | 17.0 | 0.01 | 0.16 | 0.16 | 89 | 1006.8 |
| 20260903004041 | 59 | 240 | 4.0 | 9.0 | 0.00 | 0.15 | 0.15 | 87 | 1006.5 |
| 20260903003541 | 59 | 154 | 2.0 | 5.0 | 0.00 | 0.15 | 0.15 | 88 | 1005.8 |
| 20260903003041 | 59 | 150 | 0.0 | 2.0 | 0.00 | 0.15 | 0.15 | 88 | 1005.4 |
| 20260903002540 | 59 | 150 | 0.0 | 3.0 | 0.01 | 0.15 | 0.15 | 89 | 1005.4 |
| 20260903001538 | 59 | 150 | 0.0 | 5.0 | 0.01 | 0.15 | 0.15 | 89 | 1005.5 |
| 20260903001036 | 59 | 150 | 0.0 | 6.0 | 0.01 | 0.15 | 0.15 | 89 | 1005.5 |
| 20260903000536 | 59 | 151 | 2.0 | 6.0 | 0.01 | 0.15 | 0.15 | 88 | 1005.4 |
| 20260903000037 | 59 | 153 | 1.0 | 9.0 | 0.01 | 0.15 | 0.15 | 89 | 1005.4 |
| 20260902235537 | 59 | 155 | 4.0 | 9.0 | 0.01 | 0.15 | 0.15 | 90 | 1005.4 |
| 20260902235036 | 59 | 126 | 2.0 | 8.0 | 0.02 | 0.15 | 0.15 | 91 | 1005.4 |
| 20260902234550 | 59 | 134 | 4.0 | 7.0 | 0.03 | 0.15 | 0.15 | 92 | 1005.5 |
| 20260902234036 | 59 | 93 | 2.0 | 5.0 | 0.03 | 0.15 | 0.15 | 92 | 1005.6 |
| 20260902233536 | 59 | 78 | 0.0 | 5.0 | 0.04 | 0.15 | 0.15 | 93 | 1005.4 |
| 20260902233038 | 58 | 80 | 0.0 | 2.0 | 0.05 | 0.15 | 0.15 | 93 | 1005.4 |
| 20260902232535 | 58 | 80 | 0.0 | 6.0 | 0.06 | 0.14 | 0.14 | 93 | 1005.4 |
| 20260902231542 | 58 | 78 | 1.0 | 10.0 | 0.07 | 0.14 | 0.14 | 94 | 1005.4 |
| 20260902231035 | 58 | 78 | 3.0 | 10.0 | 0.08 | 0.14 | 0.14 | 93 | 1005.3 |
| 20260902230535 | 58 | 61 | 4.0 | 12.0 | 0.08 | 0.14 | 0.14 | 93 | 1005.5 |
| 20260902230034 | 58 | 44 | 6.0 | 11.0 | 0.09 | 0.14 | 0.14 | 93 | 1005.3 |
| 20260902225534 | 58 | 54 | 2.0 | 7.0 | 0.10 | 0.14 | 0.14 | 93 | 1005.5 |
| 20260902225033 | 58 | 67 | 1.0 | 5.0 | 0.09 | 0.13 | 0.13 | 93 | 1005.8 |
| 20260902224539 | 58 | 69 | 2.0 | 6.0 | 0.09 | 0.13 | 0.13 | 93 | 1005.9 |
| 20260902224034 | 58 | 57 | 3.0 | 6.0 | 0.09 | 0.12 | 0.12 | 92 | 1006.0 |
| 20260902223534 | 58 | 360 | 1.0 | 5.0 | 0.08 | 0.11 | 0.11 | 92 | 1006.0 |
| 20260902223034 | 58 | 334 | 1.0 | 5.0 | 0.07 | 0.10 | 0.10 | 92 | 1006.0 |
| 20260902222535 | 58 | 296 | 0.0 | 4.0 | 0.07 | 0.09 | 0.09 | 91 | 1006.0 |
| 20260902221534 | 59 | 285 | 0.0 | 3.0 | 0.06 | 0.08 | 0.08 | 91 | 1006.0 |
| 20260902221034 | 59 | 284 | 0.0 | 3.0 | 0.06 | 0.07 | 0.07 | 91 | 1005.9 |
| 20260902220533 | 59 | 284 | 0.0 | 3.0 | 0.05 | 0.06 | 0.06 | 90 | 1005.8 |
| 20260902220036 | 59 | 281 | 0.0 | 2.0 | 0.05 | 0.05 | 0.05 | 89 | 1005.8 |
| 20260902215536 | 59 | 281 | 0.0 | 1.0 | 0.05 | 0.05 | 0.05 | 88 | 1006.0 |
| 20260902215032 | 59 | 281 | 0.0 | 3.0 | 0.04 | 0.04 | 0.04 | 87 | 1006.1 |
| 20260902214535 | 59 | 281 | 0.0 | 4.0 | 0.04 | 0.04 | 0.04 | 87 | 1006.0 |
| 20260902214036 | 60 | 280 | 0.0 | 4.0 | 0.03 | 0.03 | 0.03 | 89 | 1005.9 |
| 20260902213532 | 60 | 284 | 1.0 | 4.0 | 0.03 | 0.03 | 0.03 | 88 | 1006.0 |
| 20260902213032 | 60 | 284 | 2.0 | 7.0 | 0.03 | 0.03 | 0.03 | 87 | 1005.8 |
| 20260902212531 | 60 | 287 | 3.0 | 7.0 | 0.02 | 0.02 | 0.02 | 86 | 1005.7 |
| 20260902211537 | 61 | 306 | 2.0 | 6.0 | 0.02 | 0.02 | 0.02 | 83 | 1005.6 |
| 20260902211036 | 61 | 318 | 3.0 | 6.0 | 0.02 | 0.02 | 0.02 | 80 | 1005.5 |
| 20260902210531 | 62 | 279 | 2.0 | 7.0 | 0.01 | 0.01 | 0.01 | 79 | 1005.6 |
| 20260902210030 | 62 | 256 | 3.0 | 9.0 | 0.01 | 0.01 | 0.01 | 78 | 1005.7 |
| 20260902205530 | 63 | 240 | 2.0 | 9.0 | 0.00 | 0.00 | 0.00 | 75 | 1005.6 |
| 20260902205031 | 63 | 261 | 3.0 | 7.0 | 0.00 | 0.00 | 0.00 | 76 | 1005.6 |
| 20260902204530 | 64 | 254 | 1.0 | 9.0 | 0.00 | 0.00 | 0.00 | 75 | 1005.7 |
| 20260902204030 | 64 | 248 | 3.0 | 9.0 | 0.00 | 0.00 | 0.00 | 73 | 1005.6 |
| 20260902203532 | 64 | 269 | 5.0 | 9.0 | 0.00 | 0.00 | 0.00 | 71 | 1005.7 |
| 20260902203029 | 65 | 236 | 4.0 | 9.0 | 0.00 | 0.00 | 0.00 | 72 | 1005.7 |
| 20260902202529 | 65 | 299 | 2.0 | 5.0 | 0.00 | 0.00 | 0.00 | 72 | 1005.6 |
| 20260902201537 | 66 | 295 | 4.0 | 8.0 | 0.00 | 0.00 | 0.00 | 69 | 1005.5 |
| 20260902201029 | 67 | 313 | 3.0 | 8.0 | 0.00 | 0.00 | 0.00 | 67 | 1005.6 |
| 20260902200533 | 67 | 292 | 4.0 | 7.0 | 0.00 | 0.00 | 0.00 | 63 | 1005.6 |
| 20260902200033 | 67 | 286 | 3.0 | 7.0 | 0.00 | 0.00 | 0.00 | 64 | 1005.6 |
| 20260902195528 | 67 | 275 | 3.0 | 7.0 | 0.00 | 0.00 | 0.00 | 65 | 1005.5 |
| 20260902195028 | 67 | 267 | 3.0 | 8.0 | 0.00 | 0.00 | 0.00 | 65 | 1005.8 |
| 20260902194532 | 67 | 255 | 4.0 | 9.0 | 0.00 | 0.00 | 0.00 | 64 | 1005.8 |
| 20260902194028 | 67 | 288 | 6.0 | 9.0 | 0.00 | 0.00 | 0.00 | 65 | 1005.8 |
| 20260902193527 | 67 | 277 | 2.0 | 7.0 | 0.00 | 0.00 | 0.00 | 65 | 1006.0 |
| 20260902193027 | 68 | 288 | 2.0 | 5.0 | 0.00 | 0.00 | 0.00 | 64 | 1006.0 |
| 20260902192526 | 68 | 292 | 1.0 | 5.0 | 0.00 | 0.00 | 0.00 | 64 | 1006.0 |
| 20260902191531 | 69 | 294 | 3.0 | 7.0 | 0.00 | 0.00 | 0.00 | 62 | 1006.0 |
| 20260902191027 | 69 | 304 | 3.0 | 5.0 | 0.00 | 0.00 | 0.00 | 62 | 1005.9 |
| 20260902190532 | 69 | 303 | 2.0 | 6.0 | 0.00 | 0.00 | 0.00 | 61 | 1006.0 |
| 20260902190026 | 69 | 304 | 4.0 | 6.0 | 0.00 | 0.00 | 0.00 | 61 | 1006.0 |
| 20260902185525 | 68 | 344 | 1.0 | 4.0 | 0.00 | 0.00 | 0.00 | 64 | 1006.0 |
| 20260902185025 | 67 | 344 | 1.0 | 3.0 | 0.00 | 0.00 | 0.00 | 63 | 1006.2 |
| 20260902184523 | 67 | 344 | 0.0 | 3.0 | 0.00 | 0.00 | 0.00 | 65 | 1006.2 |
| 20260902184023 | 67 | 344 | 1.0 | 4.0 | 0.00 | 0.00 | 0.00 | 66 | 1006.2 |
| 20260902183521 | 66 | 342 | 0.0 | 4.0 | 0.00 | 0.00 | 0.00 | 67 | 1006.2 |
| 20260902183023 | 66 | 338 | 1.0 | 4.0 | 0.00 | 0.00 | 0.00 | 67 | 1006.3 |
| 20260902182520 | 66 | 15 | 0.0 | 5.0 | 0.00 | 0.00 | 0.00 | 69 | 1006.4 |
| 20260902181518 | 66 | 16 | 2.0 | 5.0 | 0.00 | 0.00 | 0.00 | 70 | 1006.4 |
| 20260902181017 | 65 | 39 | 2.0 | 7.0 | 0.00 | 0.00 | 0.00 | 71 | 1006.4 |
| 20260902180517 | 65 | 59 | 4.0 | 9.0 | 0.00 | 0.00 | 0.00 | 71 | 1006.5 |
| 20260902180015 | 65 | 35 | 4.0 | 9.0 | 0.00 | 0.00 | 0.00 | 73 | 1006.4 |
| 20260902175516 | 65 | 44 | 0.0 | 5.0 | 0.00 | 0.00 | 0.00 | 74 | 1006.6 |
| 20260902175015 | 65 | 53 | 3.0 | 5.0 | 0.00 | 0.00 | 0.00 | 74 | 1006.6 |
| 20260902174515 | 65 | 79 | 1.0 | 6.0 | 0.00 | 0.00 | 0.00 | 74 | 1006.8 |
| 20260902174014 | 65 | 113 | 2.0 | 7.0 | 0.00 | 0.00 | 0.00 | 74 | 1006.8 |
| 20260902173514 | 65 | 146 | 1.0 | 6.0 | 0.00 | 0.00 | 0.00 | 75 | 1006.9 |
| 20260902173028 | 64 | 185 | 1.0 | 3.0 | 0.00 | 0.00 | 0.00 | 71 | 1007.0 |
| 20260902172514 | 64 | 186 | 0.0 | 4.0 | 0.00 | 0.00 | 0.00 | 73 | 1007.1 |
| 20260902171507 | 64 | 186 | 0.0 | 0.0 | 0.00 | 0.00 | 0.00 | 72 | 1007.1 |
| 20260902171006 | 64 | 186 | 0.0 | 5.0 | 0.00 | 0.00 | 0.00 | 74 | 1007.1 |
| 20260902170508 | 64 | 178 | 0.0 | 2.0 | 0.00 | 0.00 | 0.00 | 73 | 1007.1 |
| 20260902170008 | 63 | 178 | 0.0 | 5.0 | 0.00 | 0.00 | 0.00 | 75 | 1007.1 |
| 20260902165506 | 63 | 178 | 3.0 | 5.0 | 0.00 | 0.00 | 0.00 | 75 | 1007.2 |
| 20260902165005 | 63 | 148 | 1.0 | 5.0 | 0.00 | 0.00 | 0.00 | 75 | 1007.3 |
| 20260902164505 | 63 | 146 | 0.0 | 3.0 | 0.00 | 0.00 | 0.00 | 75 | 1007.5 |
| 20260902164004 | 63 | 146 | 0.0 | 3.0 | 0.00 | 0.00 | 0.00 | 75 | 1007.3 |
| 20260902163504 | 63 | 146 | 0.0 | 2.0 | 0.00 | 0.00 | 0.00 | 76 | 1007.2 |
| 20260902163004 | 63 | 146 | 0.0 | 5.0 | 0.00 | 0.00 | 0.00 | 75 | 1007.2 |
| 20260902162502 | 63 | 146 | 1.0 | 5.0 | 0.00 | 0.00 | 0.00 | 75 | 1007.3 |
| 20260902161506 | 63 | 147 | 0.0 | 4.0 | 0.00 | 0.00 | 0.00 | 76 | 1007.6 |
| 20260902161000 | 63 | 147 | 1.0 | 5.0 | 0.00 | 0.00 | 0.00 | 78 | 1007.6 |
| 20260902160559 | 63 | 147 | 2.0 | 5.0 | 0.00 | 0.00 | 0.00 | 76 | 1007.6 |
| 20260902160059 | 63 | 146 | 2.0 | 5.0 | 0.00 | 0.00 | 0.00 | 78 | 1007.7 |
| 20260902155558 | 63 | 146 | 0.0 | 5.0 | 0.00 | 0.00 | 0.00 | 77 | 1007.7 |
| 20260902155058 | 63 | 147 | 1.0 | 7.0 | 0.00 | 0.00 | 0.00 | 78 | 1007.8 |
| 20260902154600 | 63 | 148 | 2.0 | 8.0 | 0.00 | 0.00 | 0.00 | 79 | 1007.7 |
| 20260902154056 | 63 | 154 | 3.0 | 8.0 | 0.00 | 0.00 | 0.00 | 80 | 1007.7 |
| 20260902153557 | 62 | 148 | 3.0 | 7.0 | 0.00 | 0.00 | 0.00 | 79 | 1007.9 |
| 20260902153056 | 62 | 146 | 4.0 | 7.0 | 0.00 | 0.00 | 0.00 | 80 | 1007.9 |
| 20260902152554 | 62 | 146 | 0.0 | 3.0 | 0.00 | 0.00 | 0.00 | 82 | 1007.9 |
| 20260902151554 | 61 | 147 | 0.0 | 8.0 | 0.00 | 0.00 | 0.00 | 85 | 1008.0 |
| 20260902151053 | 60 | 161 | 3.0 | 7.0 | 0.00 | 0.00 | 0.00 | 85 | 1008.0 |
| 20260902150551 | 60 | 166 | 4.0 | 9.0 | 0.00 | 0.00 | 0.00 | 87 | 1008.1 |
| 20260902150049 | 60 | 169 | 1.0 | 2.0 | 0.00 | 0.00 | 0.00 | 89 | 1008.2 |
| 20260902145547 | 59 | 169 | 0.0 | 1.0 | 0.00 | 0.00 | 0.00 | 89 | 1008.3 |
| 20260902145047 | 58 | 169 | 0.0 | 3.0 | 0.00 | 0.00 | 0.00 | 90 | 1008.2 |
| 20260902144545 | 58 | 169 | 0.0 | 3.0 | 0.00 | 0.00 | 0.00 | 91 | 1008.3 |
| 20260902144043 | 58 | 169 | 1.0 | 4.0 | 0.00 | 0.00 | 0.00 | 91 | 1008.5 |
| 20260902143545 | 58 | 172 | 1.0 | 4.0 | 0.00 | 0.00 | 0.00 | 92 | 1008.6 |
| 20260902143043 | 57 | 181 | 0.0 | 4.0 | 0.00 | 0.00 | 0.00 | 93 | 1008.6 |
| 20260902142543 | 57 | 181 | 2.0 | 4.0 | 0.00 | 0.00 | 0.00 | 93 | 1008.6 |
| 20260902141540 | 57 | 199 | 2.0 | 4.0 | 0.00 | 0.00 | 0.00 | 94 | 1008.9 |
| 20260902141039 | 56 | 204 | 0.0 | 3.0 | 0.00 | 0.00 | 0.00 | 95 | 1008.9 |
| 20260902140539 | 56 | 204 | 0.0 | 3.0 | 0.00 | 0.00 | 0.00 | 95 | 1008.9 |
| 20260902140043 | 56 | 207 | 0.0 | 2.0 | 0.00 | 0.00 | 0.00 | 95 | 1008.9 |
| 20260902135536 | 56 | 207 | 0.0 | 2.0 | 0.00 | 0.00 | 0.00 | 96 | 1008.9 |
| 20260902135037 | 55 | 207 | 0.0 | 2.0 | 0.00 | 0.00 | 0.00 | 96 | 1008.9 |
| 20260902134535 | 55 | 207 | 0.0 | 0.0 | 0.00 | 0.00 | 0.00 | 96 | 1008.9 |
| 20260902134034 | 55 | 207 | 0.0 | 0.0 | 0.00 | 0.00 | 0.00 | 96 | 1009.0 |
| 20260902133533 | 55 | 207 | 0.0 | 0.0 | 0.00 | 0.00 | 0.00 | 96 | 1009.0 |
| 20260902133034 | 55 | 207 | 0.0 | 0.0 | 0.00 | 0.00 | 0.00 | 96 | 1009.1 |
| 20260902132537 | 55 | 207 | 0.0 | 1.0 | 0.00 | 0.00 | 0.00 | 96 | 1009.0 |
| 20260902131538 | 55 | 207 | 0.0 | 1.0 | 0.00 | 0.00 | 0.00 | 96 | 1009.0 |
| 20260902131036 | 55 | 207 | 0.0 | 3.0 | 0.00 | 0.00 | 0.00 | 96 | 1009.0 |
| 20260902130535 | 55 | 207 | 1.0 | 3.0 | 0.00 | 0.00 | 0.00 | 96 | 1009.0 |
| 20260902130041 | 55 | 207 | 0.0 | 2.0 | 0.00 | 0.00 | 0.00 | 96 | 1009.2 |
| 20260902125534 | 55 | 207 | 0.0 | 3.0 | 0.00 | 0.00 | 0.00 | 96 | 1009.1 |
| 20260902125036 | 55 | 207 | 1.0 | 3.0 | 0.00 | 0.00 | 0.00 | 95 | 1009.4 |
| 20260902124534 | 55 | 207 | 1.0 | 3.0 | 0.00 | 0.00 | 0.00 | 95 | 1009.3 |
| 20260902124032 | 55 | 207 | 0.0 | 0.0 | 0.00 | 0.00 | 0.00 | 95 | 1009.3 |
| 20260902123530 | 55 | 207 | 0.0 | 0.0 | 0.00 | 0.00 | 0.00 | 95 | 1009.3 |
| 20260902123029 | 56 | 207 | 0.0 | 0.0 | 0.00 | 0.00 | 0.00 | 94 | 1009.3 |
| 20260902122529 | 56 | 207 | 0.0 | 0.0 | 0.00 | 0.00 | 0.00 | 95 | 1009.4 |
| 20260902121525 | 56 | 207 | 0.0 | 0.0 | 0.00 | 0.00 | 0.00 | 94 | 1009.4 |
| 20260902121025 | 57 | 207 | 0.0 | 0.0 | 0.00 | 0.00 | 0.00 | 95 | 1009.5 |
| 20260902120525 | 57 | 207 | 0.0 | 0.0 | 0.00 | 0.00 | 0.00 | 95 | 1009.6 |
| 20260902120027 | 57 | 207 | 0.0 | 0.0 | 0.00 | 0.00 | 0.00 | 95 | 1009.5 |
| 20260902115524 | 57 | 207 | 0.0 | 0.0 | 0.00 | 0.00 | 0.00 | 95 | 1009.5 |
| 20260902115023 | 57 | 207 | 0.0 | 0.0 | 0.00 | 0.00 | 0.00 | 95 | 1009.6 |
| 20260902114543 | 57 | 207 | 0.0 | 0.0 | 0.00 | 0.00 | 0.00 | 94 | 1009.7 |
| 20260902114023 | 56 | 207 | 0.0 | 0.0 | 0.00 | 0.00 | 0.00 | 94 | 1009.7 |
| 20260902113522 | 57 | 207 | 0.0 | 0.0 | 0.00 | 0.00 | 0.00 | 94 | 1009.7 |
| 20260902113021 | 57 | 207 | 0.0 | 0.0 | 0.00 | 0.00 | 0.00 | 94 | 1009.7 |
| 20260902112521 | 57 | 207 | 0.0 | 1.0 | 0.00 | 0.00 | 0.00 | 94 | 1009.7 |
| 20260902111520 | 57 | 207 | 0.0 | 2.0 | 0.00 | 0.00 | 0.00 | 94 | 1009.9 |
| 20260902111018 | 57 | 207 | 0.0 | 2.0 | 0.00 | 0.00 | 0.00 | 94 | 1010.0 |
| 20260902110519 | 58 | 207 | 0.0 | 2.0 | 0.00 | 0.00 | 0.00 | 94 | 1009.9 |
| 20260902110025 | 57 | 207 | 0.0 | 0.0 | 0.00 | 0.00 | 0.00 | 94 | 1010.1 |
| 20260902105516 | 58 | 207 | 0.0 | 2.0 | 0.00 | 0.00 | 0.00 | 94 | 1010.2 |
| 20260902105018 | 57 | 207 | 0.0 | 2.0 | 0.00 | 0.00 | 0.00 | 94 | 1010.2 |
| 20260902104526 | 57 | 207 | 0.0 | 1.0 | 0.00 | 0.00 | 0.00 | 94 | 1010.2 |
| 20260902104016 | 57 | 207 | 0.0 | 1.0 | 0.00 | 0.00 | 0.00 | 94 | 1010.2 |
| 20260902103516 | 57 | 207 | 0.0 | 0.0 | 0.00 | 0.00 | 0.00 | 94 | 1010.2 |
| 20260902103022 | 57 | 207 | 0.0 | 1.0 | 0.00 | 0.00 | 0.00 | 94 | 1010.4 |
| 20260902102519 | 57 | 207 | 0.0 | 1.0 | 0.00 | 0.00 | 0.00 | 94 | 1010.3 |
| 20260902101517 | 57 | 207 | 0.0 | 1.0 | 0.00 | 0.00 | 0.00 | 94 | 1010.3 |
| 20260902101017 | 57 | 207 | 0.0 | 0.0 | 0.00 | 0.00 | 0.00 | 94 | 1010.4 |
| 20260902100516 | 57 | 226 | 0.0 | 0.0 | 0.00 | 0.00 | 0.00 | 92 | 1010.4 |
| 20260902100016 | 57 | 226 | 0.0 | 0.0 | 0.00 | 0.00 | 0.00 | 92 | 1010.4 |
| 20260902095516 | 58 | 225 | 0.0 | 0.0 | 0.00 | 0.00 | 0.00 | 92 | 1010.5 |
| 20260902095015 | 58 | 226 | 0.0 | 0.0 | 0.00 | 0.00 | 0.00 | 92 | 1010.6 |
| 20260902094514 | 58 | 226 | 0.0 | 0.0 | 0.00 | 0.00 | 0.00 | 92 | 1010.7 |
| 20260902094014 | 58 | 226 | 0.0 | 0.0 | 0.00 | 0.00 | 0.00 | 92 | 1010.6 |
| 20260902093513 | 58 | 226 | 0.0 | 0.0 | 0.00 | 0.00 | 0.00 | 92 | 1010.7 |
| 20260902093013 | 58 | 226 | 0.0 | 1.0 | 0.00 | 0.00 | 0.00 | 92 | 1010.7 |
| 20260902092513 | 58 | 226 | 0.0 | 1.0 | 0.00 | 0.00 | 0.00 | 92 | 1010.7 |
| 20260902091611 | 58 | 207 | 0.0 | 0.0 | 0.00 | 0.00 | 0.00 | 94 | 1010.7 |
| 20260902091010 | 58 | 207 | 0.0 | 1.0 | 0.00 | 0.00 | 0.00 | 94 | 1010.7 |
| 20260902090510 | 58 | 207 | 0.0 | 1.0 | 0.00 | 0.00 | 0.00 | 93 | 1010.6 |
| 20260902090010 | 58 | 207 | 0.0 | 0.0 | 0.00 | 0.00 | 0.00 | 94 | 1010.6 |
| 20260902085509 | 58 | 207 | 0.0 | 0.0 | 0.00 | 0.00 | 0.00 | 94 | 1010.6 |
| 20260902085009 | 58 | 207 | 0.0 | 0.0 | 0.00 | 0.00 | 0.00 | 93 | 1010.6 |
| 20260902084522 | 58 | 207 | 0.0 | 0.0 | 0.00 | 0.00 | 0.00 | 93 | 1010.6 |
| 20260902084009 | 58 | 207 | 0.0 | 0.0 | 0.00 | 0.00 | 0.00 | 93 | 1010.8 |
| 20260902083508 | 58 | 207 | 0.0 | 0.0 | 0.00 | 0.00 | 0.00 | 93 | 1010.8 |
| 20260902083008 | 58 | 207 | 0.0 | 0.0 | 0.00 | 0.00 | 0.00 | 93 | 1010.7 |
| 20260902082509 | 58 | 207 | 0.0 | 0.0 | 0.00 | 0.00 | 0.00 | 93 | 1010.7 |
| 20260902081508 | 58 | 207 | 0.0 | 0.0 | 0.00 | 0.00 | 0.00 | 94 | 1010.9 |
| 20260902081008 | 58 | 207 | 0.0 | 2.0 | 0.00 | 0.00 | 0.00 | 93 | 1011.1 |
| 20260902080608 | 58 | 207 | 0.0 | 3.0 | 0.00 | 0.00 | 0.00 | 93 | 1011.1 |
| 20260902080012 | 58 | 207 | 1.0 | 3.0 | 0.00 | 0.00 | 0.00 | 93 | 1011.1 |
| 20260902075508 | 58 | 207 | 1.0 | 3.0 | 0.00 | 0.00 | 0.00 | 94 | 1011.2 |
| 20260902075008 | 58 | 207 | 0.0 | 4.0 | 0.00 | 0.00 | 0.00 | 93 | 1011.3 |
| 20260902074507 | 58 | 207 | 2.0 | 4.0 | 0.00 | 0.00 | 0.00 | 93 | 1011.2 |
| 20260902074010 | 58 | 219 | 0.0 | 3.0 | 0.00 | 0.00 | 0.00 | 93 | 1011.2 |
| 20260902073507 | 58 | 219 | 0.0 | 0.0 | 0.00 | 0.00 | 0.00 | 93 | 1011.2 |
| 20260902073007 | 58 | 219 | 0.0 | 0.0 | 0.00 | 0.00 | 0.00 | 93 | 1011.4 |
| 20260902072506 | 58 | 219 | 0.0 | 0.0 | 0.00 | 0.00 | 0.00 | 93 | 1011.4 |
| 20260902071510 | 58 | 23 | 0.0 | 1.0 | 0.00 | 0.00 | 0.00 | 91 | 1011.4 |
| 20260902071010 | 58 | 23 | 0.0 | 1.0 | 0.00 | 0.00 | 0.00 | 91 | 1011.4 |
| 20260902070510 | 58 | 23 | 0.0 | 1.0 | 0.00 | 0.00 | 0.00 | 91 | 1011.4 |
| 20260902070009 | 58 | 23 | 0.0 | 1.0 | 0.00 | 0.00 | 0.00 | 91 | 1011.5 |
| 20260902065509 | 58 | 23 | 0.0 | 1.0 | 0.00 | 0.00 | 0.00 | 92 | 1011.4 |
| 20260902065009 | 58 | 137 | 0.0 | 1.0 | 0.00 | 0.00 | 0.00 | 92 | 1011.4 |
| 20260902064509 | 58 | 137 | 0.0 | 1.0 | 0.00 | 0.00 | 0.00 | 91 | 1011.6 |
| 20260902064009 | 58 | 138 | 0.0 | 1.0 | 0.00 | 0.00 | 0.00 | 91 | 1011.6 |
| 20260902063510 | 58 | 137 | 0.0 | 1.0 | 0.00 | 0.00 | 0.00 | 91 | 1011.6 |
| 20260902063016 | 58 | 138 | 0.0 | 1.0 | 0.00 | 0.00 | 0.00 | 92 | 1011.6 |
| 20260902062509 | 58 | 219 | 0.0 | 1.0 | 0.00 | 0.00 | 0.00 | 93 | 1011.6 |
| 20260902061514 | 58 | 219 | 0.0 | 1.0 | 0.00 | 0.00 | 0.00 | 93 | 1011.6 |
| 20260902061006 | 58 | 219 | 0.0 | 1.0 | 0.00 | 0.00 | 0.00 | 93 | 1011.7 |
| 20260902060505 | 58 | 219 | 0.0 | 0.0 | 0.00 | 0.00 | 0.00 | 93 | 1011.7 |
| 20260902060014 | 58 | 219 | 0.0 | 1.0 | 0.00 | 0.00 | 0.00 | 93 | 1011.8 |
| 20260902055505 | 58 | 219 | 0.0 | 1.0 | 0.00 | 0.00 | 0.00 | 93 | 1011.7 |
| 20260902055005 | 58 | 219 | 0.0 | 2.0 | 0.00 | 0.00 | 0.00 | 93 | 1011.7 |
| 20260902054606 | 58 | 219 | 0.0 | 3.0 | 0.00 | 0.00 | 0.00 | 93 | 1011.7 |
| 20260902054004 | 58 | 220 | 1.0 | 3.0 | 0.00 | 0.00 | 0.00 | 93 | 1011.9 |
| 20260902053507 | 58 | 222 | 0.0 | 0.0 | 0.00 | 0.00 | 0.00 | 93 | 1011.9 |
| 20260902053006 | 58 | 222 | 0.0 | 0.0 | 0.00 | 0.00 | 0.00 | 93 | 1011.9 |
| 20260902052507 | 58 | 222 | 0.0 | 0.0 | 0.00 | 0.00 | 0.00 | 92 | 1011.8 |
| 20260902051504 | 58 | 222 | 0.0 | 0.0 | 0.00 | 0.00 | 0.00 | 92 | 1011.8 |
| 20260902051004 | 58 | 222 | 0.0 | 0.0 | 0.00 | 0.00 | 0.00 | 92 | 1011.9 |
| 20260902050504 | 59 | 222 | 0.0 | 0.0 | 0.00 | 0.00 | 0.00 | 92 | 1011.9 |
| 20260902050007 | 59 | 222 | 0.0 | 1.0 | 0.00 | 0.00 | 0.00 | 92 | 1012.0 |
| 20260902045507 | 59 | 222 | 0.0 | 3.0 | 0.00 | 0.00 | 0.00 | 92 | 1012.1 |
| 20260902045004 | 58 | 222 | 1.0 | 3.0 | 0.00 | 0.00 | 0.00 | 92 | 1012.1 |
| 20260902044504 | 59 | 223 | 0.0 | 4.0 | 0.00 | 0.00 | 0.00 | 92 | 1012.0 |
| 20260902044004 | 59 | 223 | 1.0 | 4.0 | 0.00 | 0.00 | 0.00 | 92 | 1012.0 |
| 20260902043504 | 59 | 225 | 0.0 | 4.0 | 0.00 | 0.00 | 0.00 | 91 | 1012.0 |
| 20260902043004 | 59 | 225 | 0.0 | 4.0 | 0.00 | 0.00 | 0.00 | 91 | 1012.0 |
| 20260902042503 | 59 | 229 | 0.0 | 4.0 | 0.00 | 0.00 | 0.00 | 91 | 1012.1 |
| 20260902041506 | 59 | 242 | 0.0 | 0.0 | 0.00 | 0.00 | 0.00 | 90 | 1011.9 |
| 20260902041004 | 59 | 242 | 0.0 | 2.0 | 0.00 | 0.00 | 0.00 | 90 | 1012.0 |
| 20260902040506 | 59 | 242 | 0.0 | 4.0 | 0.00 | 0.00 | 0.00 | 89 | 1012.0 |
| 20260902040004 | 59 | 242 | 1.0 | 4.0 | 0.00 | 0.00 | 0.00 | 88 | 1012.1 |
| 20260902035502 | 60 | 246 | 0.0 | 3.0 | 0.00 | 0.00 | 0.00 | 88 | 1012.1 |
| 20260902035003 | 60 | 246 | 0.0 | 7.0 | 0.00 | 0.00 | 0.00 | 87 | 1012.1 |
| 20260902034511 | 60 | 246 | 2.0 | 7.0 | 0.00 | 0.00 | 0.00 | 87 | 1012.1 |
| 20260902034002 | 60 | 242 | 2.0 | 8.0 | 0.00 | 0.00 | 0.00 | 86 | 1012.2 |
| 20260902033502 | 60 | 253 | 3.0 | 8.0 | 0.00 | 0.00 | 0.00 | 85 | 1012.0 |
| 20260902033004 | 60 | 236 | 2.0 | 12.0 | 0.00 | 0.00 | 0.00 | 85 | 1011.9 |
| 20260902032503 | 61 | 217 | 7.0 | 12.0 | 0.00 | 0.00 | 0.00 | 84 | 1012.0 |
| 20260902031501 | 61 | 202 | 5.0 | 12.0 | 0.00 | 0.00 | 0.00 | 84 | 1012.0 |
| 20260902031001 | 61 | 224 | 5.0 | 13.0 | 0.00 | 0.00 | 0.00 | 85 | 1011.9 |
| 20260902030503 | 61 | 242 | 2.0 | 8.0 | 0.00 | 0.00 | 0.00 | 85 | 1011.9 |
| 20260902030002 | 61 | 221 | 5.0 | 8.0 | 0.00 | 0.00 | 0.00 | 85 | 1011.8 |
| 20260902025531 | 61 | 207 | 3.0 | 6.0 | 0.00 | 0.00 | 0.00 | 87 | 1011.8 |
| 20260902025103 | 61 | 69 | 0.0 | 0.0 | 0.00 | 0.00 | 0.00 | 87 | 1011.5 |
| 20260902025001 | 61 | 69 | 0.0 | 0.0 | 0.00 | 0.00 | 0.00 | 87 | 1011.6 |
| 20260902024608 | 61 | 69 | 0.0 | 0.0 | 0.00 | 0.00 | 0.00 | 87 | 1011.5 |
| 20260902024501 | 61 | 69 | 0.0 | 0.0 | 0.00 | 0.00 | 0.00 | 86 | 1011.5 |
| 20260902024101 | 61 | 69 | 0.0 | 0.0 | 0.00 | 0.00 | 0.00 | 86 | 1011.5 |
| 20260902023601 | 61 | 69 | 0.0 | 0.0 | 0.00 | 0.00 | 0.00 | 86 | 1011.4 |
| 20260902023104 | 61 | 69 | 0.0 | 0.0 | 0.00 | 0.00 | 0.00 | 86 | 1011.4 |
| 20260902022600 | 61 | 69 | 0.0 | 0.0 | 0.00 | 0.00 | 0.00 | 86 | 1011.4 |
| 20260902022501 | 61 | 69 | 0.0 | 0.0 | 0.00 | 0.00 | 0.00 | 87 | 1011.4 |
| 20260902022201 | 61 | 157 | 0.0 | 0.0 | 0.00 | 0.00 | 0.00 | 85 | 1011.3 |
| 20260902021600 | 61 | 158 | 0.0 | 0.0 | 0.00 | 0.00 | 0.00 | 85 | 1011.4 |
| 20260902021100 | 61 | 157 | 0.0 | 0.0 | 0.00 | 0.00 | 0.00 | 85 | 1011.4 |
| 20260902020600 | 61 | 158 | 0.0 | 0.0 | 0.00 | 0.00 | 0.00 | 85 | 1011.4 |
| 20260902020104 | 61 | 157 | 0.0 | 0.0 | 0.00 | 0.00 | 0.00 | 85 | 1011.4 |
| 20260902015559 | 61 | 157 | 0.0 | 1.0 | 0.00 | 0.00 | 0.00 | 85 | 1011.4 |
| 20260902015059 | 61 | 160 | 0.0 | 1.0 | 0.00 | 0.00 | 0.00 | 84 | 1011.5 |
| 20260902014559 | 61 | 157 | 0.0 | 1.0 | 0.00 | 0.00 | 0.00 | 84 | 1011.5 |
| 20260902014101 | 61 | 59 | 0.0 | 1.0 | 0.00 | 0.00 | 0.00 | 85 | 1011.5 |